sensor_id;sensor_type;location;lat;lon;timestamp;temperature;humidity
5924;DHT22;2987;50.884;14.818;2022-07-05T00:00:43;18.40;99.90
5924;DHT22;2987;50.884;14.818;2022-07-05T00:03:10;18.40;99.90
5924;DHT22;2987;50.884;14.818;2022-07-05T00:05:37;18.30;99.90
5924;DHT22;2987;50.884;14.818;2022-07-05T00:08:04;18.30;99.90
5924;DHT22;2987;50.884;14.818;2022-07-05T00:10:32;18.20;99.90
5924;DHT22;2987;50.884;14.818;2022-07-05T00:12:58;18.20;99.90
5924;DHT22;2987;50.884;14.818;2022-07-05T00:15:25;18.20;99.90
5924;DHT22;2987;50.884;14.818;2022-07-05T00:17:51;18.20;99.90
5924;DHT22;2987;50.884;14.818;2022-07-05T00:20:17;18.10;99.90
5924;DHT22;2987;50.884;14.818;2022-07-05T00:22:45;18.10;99.90
5924;DHT22;2987;50.884;14.818;2022-07-05T00:25:14;18.00;99.90
5924;DHT22;2987;50.884;14.818;2022-07-05T00:27:41;18.00;99.90
5924;DHT22;2987;50.884;14.818;2022-07-05T00:30:08;17.90;99.90
5924;DHT22;2987;50.884;14.818;2022-07-05T00:32:36;17.80;99.90
5924;DHT22;2987;50.884;14.818;2022-07-05T00:35:04;17.70;99.90
5924;DHT22;2987;50.884;14.818;2022-07-05T00:37:31;17.70;99.90
5924;DHT22;2987;50.884;14.818;2022-07-05T00:39:58;17.60;99.90
5924;DHT22;2987;50.884;14.818;2022-07-05T00:42:24;17.60;99.90
5924;DHT22;2987;50.884;14.818;2022-07-05T00:44:51;17.60;99.90
5924;DHT22;2987;50.884;14.818;2022-07-05T00:47:17;17.60;99.90
5924;DHT22;2987;50.884;14.818;2022-07-05T00:49:45;17.60;99.90
5924;DHT22;2987;50.884;14.818;2022-07-05T00:52:12;17.60;99.90
5924;DHT22;2987;50.884;14.818;2022-07-05T00:54:39;17.60;99.90
5924;DHT22;2987;50.884;14.818;2022-07-05T00:57:06;17.60;99.90
5924;DHT22;2987;50.884;14.818;2022-07-05T00:59:33;17.50;99.90
5924;DHT22;2987;50.884;14.818;2022-07-05T01:01:59;17.50;99.90
5924;DHT22;2987;50.884;14.818;2022-07-05T01:04:26;17.50;99.90
5924;DHT22;2987;50.884;14.818;2022-07-05T01:06:53;17.40;99.90
5924;DHT22;2987;50.884;14.818;2022-07-05T01:09:21;17.40;99.90
5924;DHT22;2987;50.884;14.818;2022-07-05T01:11:49;17.40;99.90
5924;DHT22;2987;50.884;14.818;2022-07-05T01:14:20;17.40;99.90
5924;DHT22;2987;50.884;14.818;2022-07-05T01:16:48;17.40;99.90
5924;DHT22;2987;50.884;14.818;2022-07-05T01:19:16;17.40;99.90
5924;DHT22;2987;50.884;14.818;2022-07-05T01:21:44;17.40;99.90
5924;DHT22;2987;50.884;14.818;2022-07-05T01:24:14;17.40;99.90
5924;DHT22;2987;50.884;14.818;2022-07-05T01:26:43;17.40;99.90
5924;DHT22;2987;50.884;14.818;2022-07-05T01:29:10;17.40;99.90
5924;DHT22;2987;50.884;14.818;2022-07-05T01:31:39;17.40;99.90
5924;DHT22;2987;50.884;14.818;2022-07-05T01:34:06;17.50;99.90
5924;DHT22;2987;50.884;14.818;2022-07-05T01:36:33;17.50;99.90
5924;DHT22;2987;50.884;14.818;2022-07-05T01:39:04;17.50;99.90
5924;DHT22;2987;50.884;14.818;2022-07-05T01:41:31;17.50;99.90
5924;DHT22;2987;50.884;14.818;2022-07-05T01:43:58;17.50;99.90
5924;DHT22;2987;50.884;14.818;2022-07-05T01:46:26;17.50;99.90
5924;DHT22;2987;50.884;14.818;2022-07-05T01:49:01;17.50;99.90
5924;DHT22;2987;50.884;14.818;2022-07-05T01:51:34;17.50;99.90
5924;DHT22;2987;50.884;14.818;2022-07-05T01:54:04;17.60;99.90
5924;DHT22;2987;50.884;14.818;2022-07-05T01:56:30;17.60;99.90
5924;DHT22;2987;50.884;14.818;2022-07-05T01:58:57;17.60;99.90
5924;DHT22;2987;50.884;14.818;2022-07-05T02:01:36;17.60;99.90
5924;DHT22;2987;50.884;14.818;2022-07-05T02:04:05;17.50;99.90
5924;DHT22;2987;50.884;14.818;2022-07-05T02:06:33;17.50;99.90
5924;DHT22;2987;50.884;14.818;2022-07-05T02:09:03;17.40;99.90
5924;DHT22;2987;50.884;14.818;2022-07-05T02:11:29;17.30;99.90
5924;DHT22;2987;50.884;14.818;2022-07-05T02:13:57;17.30;99.90
5924;DHT22;2987;50.884;14.818;2022-07-05T02:16:26;17.30;99.90
5924;DHT22;2987;50.884;14.818;2022-07-05T02:18:53;17.30;99.90
5924;DHT22;2987;50.884;14.818;2022-07-05T02:21:20;17.30;99.90
5924;DHT22;2987;50.884;14.818;2022-07-05T02:23:49;17.40;99.90
5924;DHT22;2987;50.884;14.818;2022-07-05T02:26:17;17.40;99.90
5924;DHT22;2987;50.884;14.818;2022-07-05T02:28:44;17.40;99.90
5924;DHT22;2987;50.884;14.818;2022-07-05T02:31:13;17.40;99.90
5924;DHT22;2987;50.884;14.818;2022-07-05T02:33:42;17.50;99.90
5924;DHT22;2987;50.884;14.818;2022-07-05T02:36:10;17.50;99.90
5924;DHT22;2987;50.884;14.818;2022-07-05T02:38:37;17.50;99.90
5924;DHT22;2987;50.884;14.818;2022-07-05T02:41:07;17.50;99.90
5924;DHT22;2987;50.884;14.818;2022-07-05T02:43:35;17.50;99.90
5924;DHT22;2987;50.884;14.818;2022-07-05T02:46:10;17.50;99.90
5924;DHT22;2987;50.884;14.818;2022-07-05T02:48:37;17.50;99.90
5924;DHT22;2987;50.884;14.818;2022-07-05T02:51:06;17.50;99.90
5924;DHT22;2987;50.884;14.818;2022-07-05T02:53:34;17.50;99.90
5924;DHT22;2987;50.884;14.818;2022-07-05T02:56:02;17.50;99.90
5924;DHT22;2987;50.884;14.818;2022-07-05T02:58:29;17.50;99.90
5924;DHT22;2987;50.884;14.818;2022-07-05T03:00:57;17.50;99.90
5924;DHT22;2987;50.884;14.818;2022-07-05T03:03:26;17.50;99.90
5924;DHT22;2987;50.884;14.818;2022-07-05T03:05:54;17.50;99.90
5924;DHT22;2987;50.884;14.818;2022-07-05T03:08:22;17.40;99.90
5924;DHT22;2987;50.884;14.818;2022-07-05T03:10:49;17.40;99.90
5924;DHT22;2987;50.884;14.818;2022-07-05T03:13:16;17.30;99.90
5924;DHT22;2987;50.884;14.818;2022-07-05T03:15:42;17.30;99.90
5924;DHT22;2987;50.884;14.818;2022-07-05T03:18:10;17.30;99.90
5924;DHT22;2987;50.884;14.818;2022-07-05T03:20:36;17.30;99.90
5924;DHT22;2987;50.884;14.818;2022-07-05T03:23:03;17.30;99.90
5924;DHT22;2987;50.884;14.818;2022-07-05T03:25:38;17.40;99.90
5924;DHT22;2987;50.884;14.818;2022-07-05T03:28:05;17.40;99.90
5924;DHT22;2987;50.884;14.818;2022-07-05T03:30:33;17.40;99.90
5924;DHT22;2987;50.884;14.818;2022-07-05T03:33:00;17.40;99.90
5924;DHT22;2987;50.884;14.818;2022-07-05T03:35:29;17.50;99.90
5924;DHT22;2987;50.884;14.818;2022-07-05T03:37:56;17.50;99.90
5924;DHT22;2987;50.884;14.818;2022-07-05T03:40:23;17.50;99.90
5924;DHT22;2987;50.884;14.818;2022-07-05T03:42:50;17.50;99.90
5924;DHT22;2987;50.884;14.818;2022-07-05T03:45:17;17.60;99.90
5924;DHT22;2987;50.884;14.818;2022-07-05T03:47:43;17.60;99.90
5924;DHT22;2987;50.884;14.818;2022-07-05T03:50:13;17.70;99.90
5924;DHT22;2987;50.884;14.818;2022-07-05T03:52:40;17.70;99.90
5924;DHT22;2987;50.884;14.818;2022-07-05T03:55:06;17.70;99.90
5924;DHT22;2987;50.884;14.818;2022-07-05T03:57:33;17.80;99.90
5924;DHT22;2987;50.884;14.818;2022-07-05T04:00:00;17.80;99.90
5924;DHT22;2987;50.884;14.818;2022-07-05T04:02:27;17.80;99.90
5924;DHT22;2987;50.884;14.818;2022-07-05T04:04:53;17.80;99.90
5924;DHT22;2987;50.884;14.818;2022-07-05T04:07:19;17.90;99.90
5924;DHT22;2987;50.884;14.818;2022-07-05T04:09:46;17.80;99.90
5924;DHT22;2987;50.884;14.818;2022-07-05T04:12:13;17.80;99.90
5924;DHT22;2987;50.884;14.818;2022-07-05T04:14:42;17.80;99.90
5924;DHT22;2987;50.884;14.818;2022-07-05T04:17:08;17.80;99.90
5924;DHT22;2987;50.884;14.818;2022-07-05T04:19:35;17.80;99.90
5924;DHT22;2987;50.884;14.818;2022-07-05T04:22:01;17.80;99.90
5924;DHT22;2987;50.884;14.818;2022-07-05T04:24:28;17.80;99.90
5924;DHT22;2987;50.884;14.818;2022-07-05T04:26:54;17.80;99.90
5924;DHT22;2987;50.884;14.818;2022-07-05T04:29:20;17.80;99.90
5924;DHT22;2987;50.884;14.818;2022-07-05T04:31:46;17.70;99.90
5924;DHT22;2987;50.884;14.818;2022-07-05T04:34:14;17.70;99.90
5924;DHT22;2987;50.884;14.818;2022-07-05T04:36:44;17.70;99.90
5924;DHT22;2987;50.884;14.818;2022-07-05T04:39:10;17.70;99.90
5924;DHT22;2987;50.884;14.818;2022-07-05T04:41:42;17.70;99.90
5924;DHT22;2987;50.884;14.818;2022-07-05T04:44:10;17.70;99.90
5924;DHT22;2987;50.884;14.818;2022-07-05T04:46:37;17.70;99.90
5924;DHT22;2987;50.884;14.818;2022-07-05T04:49:04;17.70;99.90
5924;DHT22;2987;50.884;14.818;2022-07-05T04:51:30;17.70;99.90
5924;DHT22;2987;50.884;14.818;2022-07-05T04:53:56;17.70;99.90
5924;DHT22;2987;50.884;14.818;2022-07-05T04:56:22;17.70;99.90
5924;DHT22;2987;50.884;14.818;2022-07-05T04:58:48;17.70;99.90
5924;DHT22;2987;50.884;14.818;2022-07-05T05:01:15;17.70;99.90
5924;DHT22;2987;50.884;14.818;2022-07-05T05:03:41;17.70;99.90
5924;DHT22;2987;50.884;14.818;2022-07-05T05:06:07;17.80;99.90
5924;DHT22;2987;50.884;14.818;2022-07-05T05:08:33;17.80;99.90
5924;DHT22;2987;50.884;14.818;2022-07-05T05:11:00;17.80;99.90
5924;DHT22;2987;50.884;14.818;2022-07-05T05:13:26;17.80;99.90
5924;DHT22;2987;50.884;14.818;2022-07-05T05:15:52;17.80;99.90
5924;DHT22;2987;50.884;14.818;2022-07-05T05:18:18;17.90;99.90
5924;DHT22;2987;50.884;14.818;2022-07-05T05:20:47;17.90;99.90
5924;DHT22;2987;50.884;14.818;2022-07-05T05:23:13;18.00;99.90
5924;DHT22;2987;50.884;14.818;2022-07-05T05:25:39;18.10;99.90
5924;DHT22;2987;50.884;14.818;2022-07-05T05:28:05;18.20;99.90
5924;DHT22;2987;50.884;14.818;2022-07-05T05:30:32;18.30;99.90
5924;DHT22;2987;50.884;14.818;2022-07-05T05:32:58;18.40;99.90
5924;DHT22;2987;50.884;14.818;2022-07-05T05:35:24;18.40;99.90
5924;DHT22;2987;50.884;14.818;2022-07-05T05:37:53;18.50;99.90
5924;DHT22;2987;50.884;14.818;2022-07-05T05:40:22;18.60;99.90
5924;DHT22;2987;50.884;14.818;2022-07-05T05:42:49;18.70;99.90
5924;DHT22;2987;50.884;14.818;2022-07-05T05:45:16;18.80;99.90
5924;DHT22;2987;50.884;14.818;2022-07-05T05:50:47;19.00;99.90
5924;DHT22;2987;50.884;14.818;2022-07-05T05:53:14;19.10;99.90
5924;DHT22;2987;50.884;14.818;2022-07-05T05:55:41;19.30;99.90
5924;DHT22;2987;50.884;14.818;2022-07-05T05:58:18;19.40;99.90
5924;DHT22;2987;50.884;14.818;2022-07-05T06:00:46;19.50;99.90
5924;DHT22;2987;50.884;14.818;2022-07-05T06:03:16;19.60;99.90
5924;DHT22;2987;50.884;14.818;2022-07-05T06:05:42;19.70;99.90
5924;DHT22;2987;50.884;14.818;2022-07-05T06:08:08;19.70;99.90
5924;DHT22;2987;50.884;14.818;2022-07-05T06:10:35;19.80;99.90
5924;DHT22;2987;50.884;14.818;2022-07-05T06:13:04;19.90;99.90
5924;DHT22;2987;50.884;14.818;2022-07-05T06:15:31;20.00;99.90
5924;DHT22;2987;50.884;14.818;2022-07-05T06:17:58;20.10;99.90
5924;DHT22;2987;50.884;14.818;2022-07-05T06:20:29;20.30;99.90
5924;DHT22;2987;50.884;14.818;2022-07-05T06:22:57;20.60;99.90
5924;DHT22;2987;50.884;14.818;2022-07-05T06:25:24;21.00;99.90
5924;DHT22;2987;50.884;14.818;2022-07-05T06:27:56;21.30;99.90
5924;DHT22;2987;50.884;14.818;2022-07-05T06:30:24;21.70;99.90
5924;DHT22;2987;50.884;14.818;2022-07-05T06:32:52;22.10;99.90
5924;DHT22;2987;50.884;14.818;2022-07-05T06:35:18;22.40;99.90
5924;DHT22;2987;50.884;14.818;2022-07-05T06:37:50;22.70;99.90
5924;DHT22;2987;50.884;14.818;2022-07-05T06:40:20;22.90;99.90
5924;DHT22;2987;50.884;14.818;2022-07-05T06:42:46;22.90;99.90
5924;DHT22;2987;50.884;14.818;2022-07-05T06:45:15;23.20;99.90
5924;DHT22;2987;50.884;14.818;2022-07-05T06:47:42;23.30;99.90
5924;DHT22;2987;50.884;14.818;2022-07-05T06:50:09;23.50;99.90
5924;DHT22;2987;50.884;14.818;2022-07-05T06:52:37;23.80;99.90
5924;DHT22;2987;50.884;14.818;2022-07-05T06:55:03;24.00;99.90
5924;DHT22;2987;50.884;14.818;2022-07-05T06:57:30;24.00;99.90
5924;DHT22;2987;50.884;14.818;2022-07-05T06:59:56;24.30;99.90
5924;DHT22;2987;50.884;14.818;2022-07-05T07:02:23;24.60;99.90
5924;DHT22;2987;50.884;14.818;2022-07-05T07:04:49;24.70;99.90
5924;DHT22;2987;50.884;14.818;2022-07-05T07:07:16;24.90;99.90
5924;DHT22;2987;50.884;14.818;2022-07-05T07:10:03;25.00;99.90
5924;DHT22;2987;50.884;14.818;2022-07-05T07:12:30;25.10;99.90
5924;DHT22;2987;50.884;14.818;2022-07-05T07:14:56;25.30;99.90
5924;DHT22;2987;50.884;14.818;2022-07-05T07:17:24;25.50;99.90
5924;DHT22;2987;50.884;14.818;2022-07-05T07:19:51;25.60;99.90
5924;DHT22;2987;50.884;14.818;2022-07-05T07:22:17;25.70;99.90
5924;DHT22;2987;50.884;14.818;2022-07-05T07:24:43;25.90;99.90
5924;DHT22;2987;50.884;14.818;2022-07-05T07:27:09;26.20;99.90
5924;DHT22;2987;50.884;14.818;2022-07-05T07:29:37;26.20;99.90
5924;DHT22;2987;50.884;14.818;2022-07-05T07:32:05;26.10;99.90
5924;DHT22;2987;50.884;14.818;2022-07-05T07:34:32;26.30;99.90
5924;DHT22;2987;50.884;14.818;2022-07-05T07:36:58;26.30;99.90
5924;DHT22;2987;50.884;14.818;2022-07-05T07:39:30;26.40;99.90
5924;DHT22;2987;50.884;14.818;2022-07-05T07:41:58;26.20;99.90
5924;DHT22;2987;50.884;14.818;2022-07-05T07:44:24;26.20;99.90
5924;DHT22;2987;50.884;14.818;2022-07-05T07:46:50;26.10;99.90
5924;DHT22;2987;50.884;14.818;2022-07-05T07:49:17;25.70;99.90
5924;DHT22;2987;50.884;14.818;2022-07-05T07:51:43;25.70;99.90
5924;DHT22;2987;50.884;14.818;2022-07-05T07:54:10;25.60;99.90
5924;DHT22;2987;50.884;14.818;2022-07-05T07:56:37;25.80;99.90
5924;DHT22;2987;50.884;14.818;2022-07-05T07:59:03;25.90;99.90
5924;DHT22;2987;50.884;14.818;2022-07-05T08:01:29;25.70;99.90
5924;DHT22;2987;50.884;14.818;2022-07-05T08:03:55;25.70;99.90
5924;DHT22;2987;50.884;14.818;2022-07-05T08:06:21;25.80;99.90
5924;DHT22;2987;50.884;14.818;2022-07-05T08:08:47;25.60;99.90
5924;DHT22;2987;50.884;14.818;2022-07-05T08:11:15;25.70;99.90
5924;DHT22;2987;50.884;14.818;2022-07-05T08:13:42;25.70;99.90
5924;DHT22;2987;50.884;14.818;2022-07-05T08:16:09;25.50;99.90
5924;DHT22;2987;50.884;14.818;2022-07-05T08:18:36;25.60;99.90
5924;DHT22;2987;50.884;14.818;2022-07-05T08:21:22;25.40;99.90
5924;DHT22;2987;50.884;14.818;2022-07-05T08:23:59;25.30;99.90
5924;DHT22;2987;50.884;14.818;2022-07-05T08:26:26;25.40;99.90
5924;DHT22;2987;50.884;14.818;2022-07-05T08:28:53;25.50;99.90
5924;DHT22;2987;50.884;14.818;2022-07-05T08:31:20;25.60;99.90
5924;DHT22;2987;50.884;14.818;2022-07-05T08:33:47;25.50;99.90
5924;DHT22;2987;50.884;14.818;2022-07-05T08:36:13;25.40;99.90
5924;DHT22;2987;50.884;14.818;2022-07-05T08:38:39;25.40;99.90
5924;DHT22;2987;50.884;14.818;2022-07-05T08:41:08;25.50;99.90
5924;DHT22;2987;50.884;14.818;2022-07-05T08:43:37;25.70;99.90
5924;DHT22;2987;50.884;14.818;2022-07-05T08:46:05;25.80;99.90
5924;DHT22;2987;50.884;14.818;2022-07-05T08:48:37;26.10;99.90
5924;DHT22;2987;50.884;14.818;2022-07-05T08:51:14;26.30;99.90
5924;DHT22;2987;50.884;14.818;2022-07-05T08:53:41;26.20;99.90
5924;DHT22;2987;50.884;14.818;2022-07-05T08:56:08;26.40;99.90
5924;DHT22;2987;50.884;14.818;2022-07-05T08:58:42;26.60;99.90
5924;DHT22;2987;50.884;14.818;2022-07-05T09:01:09;26.80;99.90
5924;DHT22;2987;50.884;14.818;2022-07-05T09:03:43;26.80;99.90
5924;DHT22;2987;50.884;14.818;2022-07-05T09:06:12;26.60;99.90
5924;DHT22;2987;50.884;14.818;2022-07-05T09:08:39;26.50;99.90
5924;DHT22;2987;50.884;14.818;2022-07-05T09:11:08;26.80;99.90
5924;DHT22;2987;50.884;14.818;2022-07-05T09:13:37;27.20;99.90
5924;DHT22;2987;50.884;14.818;2022-07-05T09:16:04;27.40;99.90
5924;DHT22;2987;50.884;14.818;2022-07-05T09:18:42;27.50;99.90
5924;DHT22;2987;50.884;14.818;2022-07-05T09:21:26;27.80;99.90
5924;DHT22;2987;50.884;14.818;2022-07-05T09:23:56;28.10;99.90
5924;DHT22;2987;50.884;14.818;2022-07-05T09:26:44;27.90;99.90
5924;DHT22;2987;50.884;14.818;2022-07-05T09:29:13;28.00;99.90
5924;DHT22;2987;50.884;14.818;2022-07-05T09:31:41;27.80;99.90
5924;DHT22;2987;50.884;14.818;2022-07-05T09:34:13;27.50;99.90
5924;DHT22;2987;50.884;14.818;2022-07-05T09:36:49;27.60;99.90
5924;DHT22;2987;50.884;14.818;2022-07-05T09:41:42;27.70;99.60
5924;DHT22;2987;50.884;14.818;2022-07-05T09:44:09;27.90;99.10
5924;DHT22;2987;50.884;14.818;2022-07-05T09:46:35;28.00;99.40
5924;DHT22;2987;50.884;14.818;2022-07-05T09:49:01;28.00;99.20
5924;DHT22;2987;50.884;14.818;2022-07-05T09:51:28;27.60;99.50
5924;DHT22;2987;50.884;14.818;2022-07-05T09:53:55;27.80;99.30
5924;DHT22;2987;50.884;14.818;2022-07-05T09:56:22;27.50;99.90
5924;DHT22;2987;50.884;14.818;2022-07-05T09:58:51;27.80;99.60
5924;DHT22;2987;50.884;14.818;2022-07-05T10:01:33;28.20;99.20
5924;DHT22;2987;50.884;14.818;2022-07-05T10:04:03;27.90;95.50
5924;DHT22;2987;50.884;14.818;2022-07-05T10:06:32;28.00;98.10
5924;DHT22;2987;50.884;14.818;2022-07-05T10:08:59;27.60;97.30
5924;DHT22;2987;50.884;14.818;2022-07-05T10:11:26;27.40;98.30
5924;DHT22;2987;50.884;14.818;2022-07-05T10:13:54;26.90;97.70
5924;DHT22;2987;50.884;14.818;2022-07-05T10:16:22;26.90;99.30
5924;DHT22;2987;50.884;14.818;2022-07-05T10:18:51;27.40;96.10
5924;DHT22;2987;50.884;14.818;2022-07-05T10:21:18;27.80;95.60
5924;DHT22;2987;50.884;14.818;2022-07-05T10:23:49;27.90;96.50
5924;DHT22;2987;50.884;14.818;2022-07-05T10:26:20;27.60;98.00
5924;DHT22;2987;50.884;14.818;2022-07-05T10:28:50;26.90;97.20
5924;DHT22;2987;50.884;14.818;2022-07-05T10:31:18;26.70;97.00
5924;DHT22;2987;50.884;14.818;2022-07-05T10:33:45;26.80;97.90
5924;DHT22;2987;50.884;14.818;2022-07-05T10:36:12;26.90;97.60
5924;DHT22;2987;50.884;14.818;2022-07-05T10:38:43;26.90;94.40
5924;DHT22;2987;50.884;14.818;2022-07-05T10:41:23;26.90;94.60
5924;DHT22;2987;50.884;14.818;2022-07-05T10:43:54;27.10;97.80
5924;DHT22;2987;50.884;14.818;2022-07-05T10:46:38;27.50;95.60
5924;DHT22;2987;50.884;14.818;2022-07-05T10:49:14;27.60;96.10
5924;DHT22;2987;50.884;14.818;2022-07-05T10:51:42;27.80;94.90
5924;DHT22;2987;50.884;14.818;2022-07-05T10:54:09;27.70;95.60
5924;DHT22;2987;50.884;14.818;2022-07-05T10:56:35;27.70;95.10
5924;DHT22;2987;50.884;14.818;2022-07-05T10:59:05;27.50;95.40
5924;DHT22;2987;50.884;14.818;2022-07-05T11:01:35;27.00;95.30
5924;DHT22;2987;50.884;14.818;2022-07-05T11:04:23;26.70;93.40
5924;DHT22;2987;50.884;14.818;2022-07-05T11:06:52;27.10;94.20
5924;DHT22;2987;50.884;14.818;2022-07-05T11:09:21;27.50;94.60
5924;DHT22;2987;50.884;14.818;2022-07-05T11:12:02;27.60;94.40
5924;DHT22;2987;50.884;14.818;2022-07-05T11:14:30;27.90;94.70
5924;DHT22;2987;50.884;14.818;2022-07-05T11:17:16;27.80;94.00
5924;DHT22;2987;50.884;14.818;2022-07-05T11:20:08;27.40;94.70
5924;DHT22;2987;50.884;14.818;2022-07-05T11:22:36;27.10;94.10
5924;DHT22;2987;50.884;14.818;2022-07-05T11:25:04;27.10;97.50
5924;DHT22;2987;50.884;14.818;2022-07-05T11:27:33;26.90;93.90
5924;DHT22;2987;50.884;14.818;2022-07-05T11:29:59;26.50;94.30
5924;DHT22;2987;50.884;14.818;2022-07-05T11:32:37;26.20;94.70
5924;DHT22;2987;50.884;14.818;2022-07-05T11:35:20;26.30;95.40
5924;DHT22;2987;50.884;14.818;2022-07-05T11:38:05;26.50;94.50
5924;DHT22;2987;50.884;14.818;2022-07-05T11:40:35;26.70;94.30
5924;DHT22;2987;50.884;14.818;2022-07-05T11:43:04;27.20;91.90
5924;DHT22;2987;50.884;14.818;2022-07-05T11:45:34;27.60;93.00
5924;DHT22;2987;50.884;14.818;2022-07-05T11:48:01;28.00;94.60
5924;DHT22;2987;50.884;14.818;2022-07-05T11:50:34;28.30;92.90
5924;DHT22;2987;50.884;14.818;2022-07-05T11:53:01;28.40;92.00
5924;DHT22;2987;50.884;14.818;2022-07-05T11:55:28;28.50;93.20
5924;DHT22;2987;50.884;14.818;2022-07-05T11:57:57;28.50;92.30
5924;DHT22;2987;50.884;14.818;2022-07-05T12:00:31;28.60;90.70
5924;DHT22;2987;50.884;14.818;2022-07-05T12:02:58;28.50;88.50
5924;DHT22;2987;50.884;14.818;2022-07-05T12:05:30;28.20;89.30
5924;DHT22;2987;50.884;14.818;2022-07-05T12:07:56;27.80;90.60
5924;DHT22;2987;50.884;14.818;2022-07-05T12:10:24;27.70;93.20
5924;DHT22;2987;50.884;14.818;2022-07-05T12:13:10;27.50;90.30
5924;DHT22;2987;50.884;14.818;2022-07-05T12:15:38;27.30;91.90
5924;DHT22;2987;50.884;14.818;2022-07-05T12:18:05;27.30;92.50
5924;DHT22;2987;50.884;14.818;2022-07-05T12:20:35;27.50;93.30
5924;DHT22;2987;50.884;14.818;2022-07-05T12:23:02;27.40;90.90
5924;DHT22;2987;50.884;14.818;2022-07-05T12:25:31;27.50;92.70
5924;DHT22;2987;50.884;14.818;2022-07-05T12:28:00;27.60;91.70
5924;DHT22;2987;50.884;14.818;2022-07-05T12:30:29;27.70;91.10
5924;DHT22;2987;50.884;14.818;2022-07-05T12:33:08;27.80;93.00
5924;DHT22;2987;50.884;14.818;2022-07-05T12:35:41;28.20;91.40
5924;DHT22;2987;50.884;14.818;2022-07-05T12:38:11;28.30;92.70
5924;DHT22;2987;50.884;14.818;2022-07-05T12:40:43;28.20;92.10
5924;DHT22;2987;50.884;14.818;2022-07-05T12:43:12;27.60;91.50
5924;DHT22;2987;50.884;14.818;2022-07-05T12:45:40;27.30;90.80
5924;DHT22;2987;50.884;14.818;2022-07-05T12:48:08;26.90;90.10
5924;DHT22;2987;50.884;14.818;2022-07-05T12:50:52;26.60;91.50
5924;DHT22;2987;50.884;14.818;2022-07-05T12:53:19;26.10;91.60
5924;DHT22;2987;50.884;14.818;2022-07-05T12:56:08;25.90;92.00
5924;DHT22;2987;50.884;14.818;2022-07-05T12:58:55;25.90;92.90
5924;DHT22;2987;50.884;14.818;2022-07-05T13:01:33;26.30;92.60
5924;DHT22;2987;50.884;14.818;2022-07-05T13:04:10;26.80;90.60
5924;DHT22;2987;50.884;14.818;2022-07-05T13:06:48;27.20;91.90
5924;DHT22;2987;50.884;14.818;2022-07-05T13:09:35;27.70;87.50
5924;DHT22;2987;50.884;14.818;2022-07-05T13:12:15;28.00;89.50
5924;DHT22;2987;50.884;14.818;2022-07-05T13:14:44;28.20;88.10
5924;DHT22;2987;50.884;14.818;2022-07-05T13:17:12;28.50;88.80
5924;DHT22;2987;50.884;14.818;2022-07-05T13:19:40;28.70;86.10
5924;DHT22;2987;50.884;14.818;2022-07-05T13:22:07;29.00;82.00
5924;DHT22;2987;50.884;14.818;2022-07-05T13:24:34;29.10;87.00
5924;DHT22;2987;50.884;14.818;2022-07-05T13:27:01;29.20;84.70
5924;DHT22;2987;50.884;14.818;2022-07-05T13:29:28;29.30;85.90
5924;DHT22;2987;50.884;14.818;2022-07-05T13:31:54;29.50;84.80
5924;DHT22;2987;50.884;14.818;2022-07-05T13:34:21;29.20;87.50
5924;DHT22;2987;50.884;14.818;2022-07-05T13:36:53;28.90;84.40
5924;DHT22;2987;50.884;14.818;2022-07-05T13:39:20;28.90;87.30
5924;DHT22;2987;50.884;14.818;2022-07-05T13:41:48;28.80;88.40
5924;DHT22;2987;50.884;14.818;2022-07-05T13:44:14;28.60;85.60
5924;DHT22;2987;50.884;14.818;2022-07-05T13:46:40;28.40;84.60
5924;DHT22;2987;50.884;14.818;2022-07-05T13:49:07;28.20;90.50
5924;DHT22;2987;50.884;14.818;2022-07-05T13:51:33;28.00;82.60
5924;DHT22;2987;50.884;14.818;2022-07-05T13:53:59;27.90;81.10
5924;DHT22;2987;50.884;14.818;2022-07-05T13:56:30;27.90;83.10
5924;DHT22;2987;50.884;14.818;2022-07-05T13:58:58;27.90;87.50
5924;DHT22;2987;50.884;14.818;2022-07-05T14:01:26;28.20;83.20
5924;DHT22;2987;50.884;14.818;2022-07-05T14:03:56;28.50;85.20
5924;DHT22;2987;50.884;14.818;2022-07-05T14:06:25;28.50;80.60
5924;DHT22;2987;50.884;14.818;2022-07-05T14:08:52;28.60;86.40
5924;DHT22;2987;50.884;14.818;2022-07-05T14:11:18;28.90;80.60
5924;DHT22;2987;50.884;14.818;2022-07-05T14:13:45;28.80;80.10
5924;DHT22;2987;50.884;14.818;2022-07-05T14:16:11;28.50;82.70
5924;DHT22;2987;50.884;14.818;2022-07-05T14:18:37;28.30;81.30
5924;DHT22;2987;50.884;14.818;2022-07-05T14:21:04;28.10;85.20
5924;DHT22;2987;50.884;14.818;2022-07-05T14:23:31;28.20;82.70
5924;DHT22;2987;50.884;14.818;2022-07-05T14:25:59;28.30;83.00
5924;DHT22;2987;50.884;14.818;2022-07-05T14:28:27;28.30;78.30
5924;DHT22;2987;50.884;14.818;2022-07-05T14:30:54;28.30;83.40
5924;DHT22;2987;50.884;14.818;2022-07-05T14:33:20;28.30;84.70
5924;DHT22;2987;50.884;14.818;2022-07-05T14:35:47;28.10;80.10
5924;DHT22;2987;50.884;14.818;2022-07-05T14:38:13;27.90;82.90
5924;DHT22;2987;50.884;14.818;2022-07-05T14:40:39;27.90;87.00
5924;DHT22;2987;50.884;14.818;2022-07-05T14:43:06;27.70;82.70
5924;DHT22;2987;50.884;14.818;2022-07-05T14:45:32;27.80;82.60
5924;DHT22;2987;50.884;14.818;2022-07-05T14:47:59;27.90;82.10
5924;DHT22;2987;50.884;14.818;2022-07-05T14:50:25;27.70;81.70
5924;DHT22;2987;50.884;14.818;2022-07-05T14:52:51;27.70;85.70
5924;DHT22;2987;50.884;14.818;2022-07-05T14:55:18;27.40;85.20
5924;DHT22;2987;50.884;14.818;2022-07-05T14:57:45;27.50;88.30
5924;DHT22;2987;50.884;14.818;2022-07-05T15:00:13;27.40;83.50
5924;DHT22;2987;50.884;14.818;2022-07-05T15:02:41;27.40;87.10
5924;DHT22;2987;50.884;14.818;2022-07-05T15:05:08;27.40;84.40
5924;DHT22;2987;50.884;14.818;2022-07-05T15:07:38;27.40;84.10
5924;DHT22;2987;50.884;14.818;2022-07-05T15:10:08;27.40;88.20
5924;DHT22;2987;50.884;14.818;2022-07-05T15:12:34;27.30;84.00
5924;DHT22;2987;50.884;14.818;2022-07-05T15:15:00;27.30;81.30
5924;DHT22;2987;50.884;14.818;2022-07-05T15:17:27;27.40;82.90
5924;DHT22;2987;50.884;14.818;2022-07-05T15:19:54;27.20;83.00
5924;DHT22;2987;50.884;14.818;2022-07-05T15:22:20;27.10;83.80
5924;DHT22;2987;50.884;14.818;2022-07-05T15:24:47;27.10;85.20
5924;DHT22;2987;50.884;14.818;2022-07-05T15:27:13;27.20;83.60
5924;DHT22;2987;50.884;14.818;2022-07-05T15:29:40;27.40;83.40
5924;DHT22;2987;50.884;14.818;2022-07-05T15:32:08;27.50;84.20
5924;DHT22;2987;50.884;14.818;2022-07-05T15:34:34;27.50;85.20
5924;DHT22;2987;50.884;14.818;2022-07-05T15:37:00;27.40;85.20
5924;DHT22;2987;50.884;14.818;2022-07-05T15:39:26;27.40;87.20
5924;DHT22;2987;50.884;14.818;2022-07-05T15:41:53;27.50;83.20
5924;DHT22;2987;50.884;14.818;2022-07-05T15:44:19;27.50;84.20
5924;DHT22;2987;50.884;14.818;2022-07-05T15:46:51;27.50;86.00
5924;DHT22;2987;50.884;14.818;2022-07-05T15:49:36;27.40;81.60
5924;DHT22;2987;50.884;14.818;2022-07-05T15:52:02;27.30;82.10
5924;DHT22;2987;50.884;14.818;2022-07-05T15:54:28;27.10;84.80
5924;DHT22;2987;50.884;14.818;2022-07-05T15:56:55;26.90;84.50
5924;DHT22;2987;50.884;14.818;2022-07-05T15:59:23;26.70;84.00